createdAt,value
2023-01-27T00:01:07.883Z,100044.69
2023-01-27T00:03:37.376Z,100049.34
2023-01-27T00:06:06.718Z,100037.91
2023-01-27T00:08:34.959Z,100056.34
2023-01-27T00:11:21.223Z,100069.19
2023-01-27T00:13:49.359Z,100061.66
2023-01-27T00:16:17.593Z,100065.94
2023-01-27T00:18:47.076Z,100078.16
2023-01-27T00:21:32.246Z,100087.53
2023-01-27T00:24:20.558Z,100104.38
2023-01-27T00:26:48.572Z,100118.84
2023-01-27T00:29:16.515Z,100127.16
2023-01-27T00:32:02.013Z,100133.16
2023-01-27T00:34:32.910Z,100129.53
2023-01-27T00:37:00.955Z,100127.94
2023-01-27T00:39:29.173Z,100133.97
2023-01-27T00:41:57.162Z,100134.38
2023-01-27T00:44:25.169Z,100125.94
2023-01-27T00:46:53.138Z,100123.91
2023-01-27T00:49:21.427Z,100124.75
2023-01-27T00:51:50.818Z,100127.16
2023-01-27T00:54:19.116Z,100115.97
2023-01-27T00:56:47.533Z,100121.25
2023-01-27T00:59:15.827Z,100119.53
2023-01-27T01:01:43.785Z,100118.16
2023-01-27T01:04:13.143Z,100114.59
2023-01-27T01:06:41.219Z,100108.13
2023-01-27T01:09:10.625Z,100108.06
2023-01-27T01:11:38.613Z,100132.69
2023-01-27T01:14:06.666Z,100133.91
2023-01-27T01:16:34.681Z,100136.53
2023-01-27T01:19:02.583Z,100142.72
2023-01-27T01:21:30.511Z,100158.13
2023-01-27T01:23:59.177Z,100170.09
2023-01-27T01:26:28.728Z,100166.97
2023-01-27T01:28:56.657Z,100172.75
2023-01-27T01:31:24.735Z,100191.47
2023-01-27T01:33:52.699Z,100175.53
2023-01-27T01:36:22.145Z,100183.44
2023-01-27T01:38:50.581Z,100198.59
2023-01-27T01:41:21.441Z,100181.19
2023-01-27T01:43:51.827Z,100198.94
2023-01-27T01:46:21.118Z,100208.41
2023-01-27T01:48:51.261Z,100217.72
2023-01-27T01:51:22.517Z,100216.56
2023-01-27T01:53:56.746Z,100235.03
2023-01-27T01:56:28.350Z,100248.56
2023-01-27T01:59:03.165Z,100237.28
2023-01-27T02:01:31.381Z,100234.78
2023-01-27T02:04:03.921Z,100256.72
2023-01-27T02:06:38.710Z,100264.72
2023-01-27T02:09:06.783Z,100286.38
2023-01-27T02:11:34.776Z,100285.56
2023-01-27T02:14:04.679Z,100283.13
2023-01-27T02:16:33.505Z,100292.06
2023-01-27T02:19:01.507Z,100290.59
2023-01-27T02:21:29.539Z,100302.81
2023-01-27T02:24:02.504Z,100318.84
2023-01-27T02:26:34.939Z,100331.41
2023-01-27T02:29:07.311Z,100328.28
2023-01-27T02:31:35.820Z,100330.44
2023-01-27T02:34:07.420Z,100333.44
2023-01-27T02:36:40.379Z,100326.34
2023-01-27T02:39:10.765Z,100335.34
2023-01-27T02:41:43.973Z,100350.03
2023-01-27T02:44:14.089Z,100345.06
2023-01-27T02:46:42.062Z,100343.19
2023-01-27T02:49:11.329Z,100342.06
2023-01-27T02:51:40.431Z,100337.91
2023-01-27T02:54:10.010Z,100343.31
2023-01-27T02:56:38.055Z,100352.91
2023-01-27T02:59:09.107Z,100332.94
2023-01-27T03:01:40.565Z,100340.44
2023-01-27T03:04:09.329Z,100338.84
2023-01-27T03:06:37.371Z,100332.56
2023-01-27T03:09:06.135Z,100316.22
2023-01-27T03:11:51.216Z,100309.06
2023-01-27T03:14:21.392Z,100321.19
2023-01-27T03:17:06.644Z,100325.06
2023-01-27T03:19:34.721Z,100325.66
2023-01-27T03:22:04.987Z,100325.13
2023-01-27T03:24:35.473Z,100329.06
2023-01-27T03:27:07.099Z,100320.72
2023-01-27T03:29:56.432Z,100322.69
2023-01-27T03:32:25.748Z,100314.63
2023-01-27T03:35:14.476Z,100320.72
2023-01-27T03:38:01.482Z,100329.03
2023-01-27T03:40:46.879Z,100308.91
2023-01-27T03:43:32.044Z,100309.13
2023-01-27T03:46:18.529Z,100294.06
2023-01-27T03:48:49.571Z,100317.66
2023-01-27T03:51:18.622Z,100299.84
2023-01-27T03:53:47.386Z,100301.81
2023-01-27T03:56:16.144Z,100289.03
2023-01-27T03:58:44.210Z,100285.00
2023-01-27T04:01:19.054Z,100281.72
2023-01-27T04:04:05.040Z,100266.84
2023-01-27T04:06:53.280Z,100243.19
2023-01-27T04:09:23.334Z,100249.94
2023-01-27T04:11:56.563Z,100230.75
2023-01-27T04:14:26.643Z,100230.06
2023-01-27T04:16:58.323Z,100229.91
2023-01-27T04:19:27.082Z,100214.44
2023-01-27T04:21:55.091Z,100210.56
2023-01-27T04:24:25.818Z,100203.38
2023-01-27T04:26:56.367Z,100178.91
2023-01-27T04:29:26.536Z,100185.19
2023-01-27T04:31:56.137Z,100180.75
2023-01-27T04:34:24.724Z,100183.25
2023-01-27T04:36:52.822Z,100182.63
2023-01-27T04:39:21.147Z,100180.31
2023-01-27T04:41:51.268Z,100164.69
2023-01-27T04:44:20.375Z,100170.75
2023-01-27T04:46:49.107Z,100183.72
2023-01-27T04:49:18.750Z,100176.03
2023-01-27T04:51:47.502Z,100172.00
2023-01-27T04:54:16.563Z,100178.63
2023-01-27T04:56:57.197Z,100177.09
2023-01-27T04:59:25.782Z,100174.16
2023-01-27T05:01:53.888Z,100162.81
2023-01-27T05:04:23.329Z,100156.63
2023-01-27T05:06:51.285Z,100147.38
2023-01-27T05:09:19.221Z,100143.69
2023-01-27T05:11:47.170Z,100151.94
2023-01-27T05:14:15.707Z,100148.03
2023-01-27T05:16:43.661Z,100137.97
2023-01-27T05:19:11.993Z,100146.34
2023-01-27T05:21:43.412Z,100140.28
2023-01-27T05:24:11.877Z,100137.97
2023-01-27T05:26:40.692Z,100136.50
2023-01-27T05:29:08.535Z,100131.66
2023-01-27T05:31:36.652Z,100131.72
2023-01-27T05:34:04.750Z,100127.84
2023-01-27T05:36:32.718Z,100124.84
2023-01-27T05:39:02.461Z,100121.38
2023-01-27T05:41:32.238Z,100130.22
2023-01-27T05:44:00.235Z,100136.25
2023-01-27T05:46:30.596Z,100136.38
2023-01-27T05:49:01.324Z,100132.78
2023-01-27T05:51:32.372Z,100128.06
2023-01-27T05:54:02.209Z,100132.78
2023-01-27T05:56:30.939Z,100128.50
2023-01-27T05:58:59.791Z,100125.47
2023-01-27T06:01:30.034Z,100130.47
2023-01-27T06:03:58.923Z,100126.13
2023-01-27T06:06:28.714Z,100139.56
2023-01-27T06:08:56.731Z,100119.81
2023-01-27T06:11:27.171Z,100130.91
2023-01-27T06:13:55.514Z,100134.53
2023-01-27T06:16:24.778Z,100132.00
2023-01-27T06:18:52.944Z,100129.72
2023-01-27T06:21:21.251Z,100131.13
2023-01-27T06:23:49.745Z,100135.91
2023-01-27T06:26:20.220Z,100141.41
2023-01-27T06:28:49.709Z,100140.53
2023-01-27T06:31:19.916Z,100139.72
2023-01-27T06:33:48.069Z,100146.81
2023-01-27T06:36:17.815Z,100144.53
2023-01-27T06:38:46.364Z,100147.47
2023-01-27T06:41:14.457Z,100173.91
2023-01-27T06:43:42.448Z,100174.16
2023-01-27T06:46:12.300Z,100179.34
2023-01-27T06:48:40.377Z,100175.88
2023-01-27T06:51:08.869Z,100175.19
2023-01-27T06:53:37.583Z,100190.69
2023-01-27T06:56:06.478Z,100197.66
2023-01-27T06:58:34.709Z,100216.78
2023-01-27T07:01:02.870Z,100216.59
2023-01-27T07:06:00.863Z,100204.22
2023-01-27T07:08:29.003Z,100207.63
2023-01-27T07:10:56.948Z,100222.53
2023-01-27T07:13:24.863Z,100227.78
2023-01-27T07:15:56.395Z,100236.25
2023-01-27T07:18:25.590Z,100240.13
2023-01-27T07:20:55.347Z,100239.28
2023-01-27T07:23:23.441Z,100235.44
2023-01-27T07:25:51.497Z,100237.88
2023-01-27T07:28:19.376Z,100238.81
2023-01-27T07:30:47.398Z,100246.16
2023-01-27T07:33:15.846Z,100236.75
2023-01-27T07:36:00.319Z,100270.47
2023-01-27T07:39:05.288Z,100276.31
2023-01-27T07:41:35.286Z,100277.50
2023-01-27T07:44:03.301Z,100277.28
2023-01-27T07:46:31.672Z,100288.34
2023-01-27T07:48:59.559Z,100276.09
2023-01-27T07:51:27.517Z,100279.81
2023-01-27T07:53:55.482Z,100278.50
2023-01-27T07:56:23.498Z,100281.03
2023-01-27T07:58:55.927Z,100290.13
2023-01-27T08:01:23.968Z,100295.34
2023-01-27T08:03:52.048Z,100290.91
2023-01-27T08:06:20.112Z,100292.81
2023-01-27T08:08:48.528Z,100289.22
2023-01-27T08:11:16.935Z,100304.13
2023-01-27T08:13:44.872Z,100325.28
2023-01-27T08:16:16.804Z,100329.38
2023-01-27T08:18:44.700Z,100327.00
2023-01-27T08:21:13.619Z,100314.38
2023-01-27T08:23:41.577Z,100323.47
2023-01-27T08:26:09.547Z,100329.16
2023-01-27T08:28:39.383Z,100346.72
2023-01-27T08:31:08.864Z,100362.69
2023-01-27T08:33:38.882Z,100356.09
2023-01-27T08:36:09.305Z,100371.13
2023-01-27T08:38:38.477Z,100364.53
2023-01-27T08:41:07.612Z,100364.72
2023-01-27T08:43:35.775Z,100370.59
2023-01-27T08:46:04.304Z,100376.47
2023-01-27T08:48:32.615Z,100381.00
2023-01-27T08:51:03.383Z,100377.75
2023-01-27T08:53:31.930Z,100375.94
2023-01-27T08:56:04.042Z,100379.50
2023-01-27T08:58:33.357Z,100390.38
2023-01-27T09:01:03.277Z,100392.50
2023-01-27T09:03:31.731Z,100388.28
2023-01-27T09:06:01.706Z,100393.19
2023-01-27T09:08:29.732Z,100401.94
2023-01-27T09:10:58.023Z,100405.78
2023-01-27T09:13:26.056Z,100410.06
2023-01-27T09:15:54.571Z,100410.84
2023-01-27T09:18:22.857Z,100419.28
2023-01-27T09:20:50.810Z,100437.63
2023-01-27T09:23:20.282Z,100441.72
2023-01-27T09:25:48.363Z,100440.56
2023-01-27T09:28:17.968Z,100445.28
2023-01-27T09:30:46.972Z,100456.75
2023-01-27T09:33:15.663Z,100461.59
2023-01-27T09:35:48.290Z,100469.41
2023-01-27T09:38:20.748Z,100455.25
2023-01-27T09:41:04.732Z,100466.81
2023-01-27T09:43:51.184Z,100450.69
2023-01-27T09:46:47.383Z,100473.59
2023-01-27T09:49:40.936Z,100481.13
2023-01-27T09:52:46.428Z,100488.09
2023-01-27T09:55:23.469Z,100488.22
2023-01-27T09:58:02.476Z,100497.41
2023-01-27T10:00:42.043Z,100475.69
2023-01-27T10:03:27.940Z,100476.72
2023-01-27T10:06:20.021Z,100476.38
2023-01-27T10:09:06.528Z,100475.31
2023-01-27T10:11:46.934Z,100471.81
2023-01-27T10:14:25.805Z,100481.69
2023-01-27T10:17:06.303Z,100480.38
2023-01-27T10:19:51.119Z,100490.97
2023-01-27T10:22:27.695Z,100480.81
2023-01-27T10:25:10.138Z,100475.31
2023-01-27T10:27:39.523Z,100468.50
2023-01-27T10:30:15.800Z,100470.50
2023-01-27T10:32:46.539Z,100468.06
2023-01-27T10:35:21.053Z,100467.94
2023-01-27T10:38:01.374Z,100469.16
2023-01-27T10:40:37.660Z,100461.94
2023-01-27T10:43:13.581Z,100465.50
2023-01-27T10:45:55.116Z,100462.28
2023-01-27T10:48:31.210Z,100464.81
2023-01-27T10:51:03.639Z,100472.16
2023-01-27T10:53:40.353Z,100470.22
2023-01-27T10:56:16.355Z,100461.75
2023-01-27T10:58:52.014Z,100470.75
2023-01-27T11:01:30.524Z,100460.75
2023-01-27T11:04:04.091Z,100460.31
2023-01-27T11:06:35.550Z,100468.44
2023-01-27T11:09:12.866Z,100469.69
2023-01-27T11:11:45.502Z,100475.47
2023-01-27T11:14:22.658Z,100465.22
2023-01-27T11:16:54.675Z,100462.63
2023-01-27T11:19:31.922Z,100463.69
2023-01-27T11:22:08.100Z,100465.00
2023-01-27T11:24:46.215Z,100463.97
2023-01-27T11:27:25.625Z,100465.81
2023-01-27T11:29:57.528Z,100470.03
2023-01-27T11:32:39.992Z,100475.38
2023-01-27T11:35:11.717Z,100460.56
2023-01-27T11:37:41.773Z,100478.25
2023-01-27T11:40:17.523Z,100465.16
2023-01-27T11:42:47.059Z,100469.72
2023-01-27T11:45:17.508Z,100484.28
2023-01-27T11:47:49.054Z,100486.50
2023-01-27T11:50:20.827Z,100490.81
2023-01-27T11:52:52.209Z,100494.53
2023-01-27T11:55:25.660Z,100491.91
2023-01-27T11:57:57.696Z,100499.53
2023-01-27T12:00:31.480Z,100502.38
2023-01-27T12:03:07.726Z,100493.91
2023-01-27T12:05:39.262Z,100496.22
2023-01-27T12:08:07.466Z,100501.94
2023-01-27T12:10:38.879Z,100511.03
2023-01-27T12:13:10.484Z,100516.97
2023-01-27T12:15:47.933Z,100529.25
2023-01-27T12:18:18.309Z,100515.84
2023-01-27T12:20:48.104Z,100541.69
2023-01-27T12:23:22.323Z,100543.31
2023-01-27T12:25:55.303Z,100549.03
2023-01-27T12:28:29.375Z,100559.09
2023-01-27T12:31:06.886Z,100571.59
2023-01-27T12:33:38.584Z,100561.50
2023-01-27T12:36:15.840Z,100571.38
2023-01-27T12:38:52.789Z,100588.69
2023-01-27T12:41:28.624Z,100600.31
2023-01-27T12:44:00.339Z,100608.72
2023-01-27T12:46:30.379Z,100586.16
2023-01-27T12:49:10.543Z,100610.66
2023-01-27T12:51:41.927Z,100618.78
2023-01-27T12:54:18.530Z,100624.22
2023-01-27T12:56:47.453Z,100631.69
2023-01-27T12:59:17.656Z,100634.13
2023-01-27T13:01:57.935Z,100636.88
2023-01-27T13:04:28.945Z,100637.53
2023-01-27T13:07:04.764Z,100653.13
2023-01-27T13:09:36.796Z,100652.66
2023-01-27T13:12:17.036Z,100648.56
2023-01-27T13:14:45.268Z,100660.00
2023-01-27T13:17:31.300Z,100677.59
2023-01-27T13:20:06.491Z,100709.56
2023-01-27T13:22:41.017Z,100687.19
2023-01-27T13:25:18.849Z,100704.63
2023-01-27T13:27:49.677Z,100727.88
2023-01-27T13:30:28.133Z,100722.31
2023-01-27T13:33:01.983Z,100750.50
2023-01-27T13:35:38.627Z,100760.38
2023-01-27T13:38:17.021Z,100785.69
2023-01-27T13:40:47.258Z,100784.94
2023-01-27T13:43:21.673Z,100803.78
2023-01-27T13:45:55.576Z,100822.72
2023-01-27T13:48:27.540Z,100822.03
2023-01-27T13:51:06.258Z,100849.88
2023-01-27T13:53:34.749Z,100851.00
2023-01-27T13:56:13.235Z,100855.16
2023-01-27T13:58:52.042Z,100876.09
2023-01-27T14:01:28.849Z,100875.75
2023-01-27T14:04:28.278Z,100883.53
2023-01-27T14:07:07.141Z,100881.91
2023-01-27T14:09:48.406Z,100906.25
2023-01-27T14:12:27.593Z,100905.28
2023-01-27T14:15:04.928Z,100909.06
2023-01-27T14:17:42.387Z,100902.66
2023-01-27T14:20:31.140Z,100920.38
2023-01-27T14:23:25.292Z,100906.97
2023-01-27T14:26:04.292Z,100917.03
2023-01-27T14:28:38.285Z,100897.06
2023-01-27T14:31:13.881Z,100908.44
2023-01-27T14:34:00.250Z,100899.91
2023-01-27T14:36:31.820Z,100895.22
2023-01-27T14:39:11.349Z,100890.25
2023-01-27T14:41:46.375Z,100895.44
2023-01-27T14:56:23.729Z,100916.78
2023-01-27T14:59:00.838Z,100939.69
2023-01-27T15:01:39.633Z,100911.28
2023-01-27T15:04:38.326Z,100913.41
2023-01-27T15:07:22.991Z,100932.59
2023-01-27T15:10:18.532Z,100937.41
2023-01-27T15:13:09.253Z,100923.97
2023-01-27T15:16:16.402Z,100930.91
2023-01-27T15:19:33.859Z,100925.28
2023-01-27T15:22:30.994Z,100927.75
2023-01-27T15:25:14.308Z,100922.22
2023-01-27T15:27:44.968Z,100951.84
2023-01-27T15:30:27.067Z,100950.13
2023-01-27T15:32:55.347Z,100961.59
2023-01-27T15:35:38.089Z,100968.28
2023-01-27T15:38:34.261Z,100967.16
2023-01-27T15:41:13.139Z,100963.75
2023-01-27T15:43:46.640Z,100981.72
2023-01-27T15:46:33.227Z,100971.47
2023-01-27T15:49:04.682Z,100982.72
2023-01-27T15:51:37.191Z,100984.34
2023-01-27T15:54:07.228Z,100999.56
2023-01-27T15:56:47.857Z,101000.31
2023-01-27T15:59:19.514Z,101001.06
2023-01-27T16:01:51.211Z,101006.72
2023-01-27T16:04:25.163Z,101005.75
2023-01-27T16:07:01.863Z,101016.94
2023-01-27T16:09:37.649Z,101011.88
2023-01-27T16:12:27.486Z,101021.84
2023-01-27T16:15:24.733Z,101030.03
2023-01-27T16:18:03.825Z,101020.44
2023-01-27T16:20:34.128Z,101011.53
2023-01-27T16:23:07.118Z,101022.16
2023-01-27T16:25:42.804Z,101016.34
2023-01-27T16:28:19.059Z,100986.47
2023-01-27T16:30:50.791Z,101015.41
2023-01-27T16:33:25.989Z,101032.41
2023-01-27T16:35:56.003Z,101024.84
2023-01-27T16:38:28.199Z,101042.06
2023-01-27T16:40:58.510Z,101044.13
2023-01-27T16:43:32.973Z,101049.28
2023-01-27T16:46:02.617Z,101051.06
2023-01-27T16:48:37.719Z,101064.06
2023-01-27T16:51:16.698Z,101071.13
2023-01-27T16:53:48.162Z,101070.44
2023-01-27T16:56:22.903Z,101066.25
2023-01-27T16:58:52.058Z,101064.94
2023-01-27T17:01:27.231Z,101073.13
2023-01-27T17:04:07.736Z,101067.94
2023-01-27T17:06:46.281Z,101072.44
2023-01-27T17:09:22.672Z,101062.47
2023-01-27T17:11:51.024Z,101068.91
2023-01-27T17:14:30.414Z,101068.13
2023-01-27T17:17:01.078Z,101067.06
2023-01-27T17:19:33.563Z,101059.66
2023-01-27T17:22:04.285Z,101061.31
2023-01-27T17:24:34.519Z,101062.28
2023-01-27T17:27:05.404Z,101059.41
2023-01-27T17:29:36.807Z,101062.13
2023-01-27T17:32:15.919Z,101052.13
2023-01-27T17:34:45.544Z,101062.13
2023-01-27T17:37:19.020Z,101058.06
2023-01-27T17:39:47.999Z,101052.88
2023-01-27T17:42:17.807Z,101060.91
2023-01-27T17:44:46.247Z,101056.16
2023-01-27T17:47:15.801Z,101064.28
2023-01-27T17:49:46.123Z,101058.97
2023-01-27T17:52:20.884Z,101054.81
2023-01-27T17:54:51.715Z,101061.31
2023-01-27T17:57:23.069Z,101054.56
2023-01-27T18:00:00.219Z,101061.75
2023-01-27T18:02:30.826Z,101065.31
2023-01-27T18:05:02.588Z,101063.22
2023-01-27T18:07:30.973Z,101065.63
2023-01-27T18:09:58.980Z,101077.69
2023-01-27T18:12:32.056Z,101085.13
2023-01-27T18:15:00.609Z,101099.50
2023-01-27T18:17:32.034Z,101096.34
2023-01-27T18:20:02.074Z,101112.75
2023-01-27T18:22:30.103Z,101118.34
2023-01-27T18:25:03.086Z,101138.78
2023-01-27T18:27:34.525Z,101144.63
2023-01-27T18:30:07.397Z,101143.31
2023-01-27T18:32:40.793Z,101151.72
2023-01-27T18:35:25.037Z,101153.75
2023-01-27T18:37:56.055Z,101128.47
2023-01-27T18:40:28.817Z,101158.69
2023-01-27T18:42:58.313Z,101162.31
2023-01-27T18:45:27.229Z,101170.03
2023-01-27T18:47:56.471Z,101160.13
2023-01-27T18:50:27.332Z,101164.69
2023-01-27T18:52:55.574Z,101166.38
2023-01-27T18:55:25.625Z,101149.84
2023-01-27T18:57:55.689Z,101152.38
2023-01-27T19:00:25.963Z,101161.66
2023-01-27T19:02:59.065Z,101169.75
2023-01-27T19:05:30.436Z,101166.94
2023-01-27T19:07:59.039Z,101156.88
2023-01-27T19:10:30.630Z,101199.88
2023-01-27T19:13:00.155Z,101201.78
2023-01-27T19:15:31.430Z,101189.84
2023-01-27T19:18:01.514Z,101196.75
2023-01-27T19:20:32.440Z,101213.19
2023-01-27T19:23:00.582Z,101196.75
2023-01-27T19:25:30.977Z,101210.34
2023-01-27T19:28:04.680Z,101225.00
2023-01-27T19:30:36.398Z,101229.34
2023-01-27T19:33:06.009Z,101229.94
2023-01-27T19:35:36.715Z,101233.50
2023-01-27T19:38:06.047Z,101237.88
2023-01-27T19:40:33.990Z,101251.78
2023-01-27T19:43:02.300Z,101258.16
2023-01-27T19:45:30.361Z,101262.72
2023-01-27T19:47:59.840Z,101277.59
2023-01-27T19:50:29.555Z,101279.25
2023-01-27T19:53:00.078Z,101285.34
2023-01-27T19:55:28.166Z,101280.84
2023-01-27T19:57:56.139Z,101282.94
2023-01-27T20:00:28.040Z,101285.06
2023-01-27T20:02:56.931Z,101292.19
2023-01-27T20:05:26.187Z,101297.84
2023-01-27T20:07:55.687Z,101303.13
2023-01-27T20:10:27.163Z,101300.78
2023-01-27T20:12:57.491Z,101309.81
2023-01-27T20:15:27.147Z,101331.03
2023-01-27T20:17:55.955Z,101336.16
2023-01-27T20:20:25.709Z,101331.88
2023-01-27T20:22:54.132Z,101349.81
2023-01-27T20:25:25.165Z,101351.75
2023-01-27T20:27:56.944Z,101346.25
2023-01-27T20:30:27.083Z,101353.59
2023-01-27T20:32:56.568Z,101357.47
2023-01-27T20:35:25.038Z,101355.59
2023-01-27T20:37:54.566Z,101352.59
2023-01-27T20:40:24.504Z,101358.19
2023-01-27T20:42:53.257Z,101359.47
2023-01-27T20:45:23.980Z,101352.56
2023-01-27T20:47:53.401Z,101348.56
2023-01-27T20:50:25.895Z,101348.41
2023-01-27T20:52:54.585Z,101349.03
2023-01-27T20:55:22.928Z,101354.03
2023-01-27T20:57:50.884Z,101359.66
2023-01-27T21:00:20.603Z,101374.41
2023-01-27T21:02:50.249Z,101374.75
2023-01-27T21:05:18.408Z,101367.31
2023-01-27T21:07:46.317Z,101351.75
2023-01-27T21:10:14.292Z,101363.41
2023-01-27T21:12:42.217Z,101366.34
2023-01-27T21:15:12.078Z,101373.03
2023-01-27T21:17:40.423Z,101368.09
2023-01-27T21:20:11.231Z,101375.34
2023-01-27T21:22:39.172Z,101382.78
2023-01-27T21:25:07.688Z,101365.22
2023-01-27T21:27:35.661Z,101381.69
2023-01-27T21:30:03.772Z,101375.38
2023-01-27T21:32:31.753Z,101373.50
2023-01-27T21:34:59.885Z,101370.88
2023-01-27T21:37:29.243Z,101367.00
2023-01-27T21:39:57.247Z,101375.44
2023-01-27T21:42:42.442Z,101377.13
2023-01-27T21:45:15.749Z,101370.88
2023-01-27T21:47:44.304Z,101371.78
2023-01-27T21:50:14.911Z,101368.16
2023-01-27T21:52:46.506Z,101379.22
2023-01-27T21:55:16.642Z,101375.84
2023-01-27T21:57:46.667Z,101364.91
2023-01-27T22:00:16.572Z,101363.91
2023-01-27T22:02:44.812Z,101368.69
2023-01-27T22:05:13.719Z,101364.81
2023-01-27T22:07:42.071Z,101369.91
2023-01-27T22:10:15.540Z,101350.97
2023-01-27T22:12:43.673Z,101363.72
2023-01-27T22:15:14.176Z,101346.59
2023-01-27T22:17:42.258Z,101342.81
2023-01-27T22:20:15.428Z,101340.28
2023-01-27T22:22:43.680Z,101357.84
2023-01-27T22:25:15.252Z,101354.47
2023-01-27T22:27:44.168Z,101346.94
2023-01-27T22:30:15.015Z,101357.00
2023-01-27T22:32:43.894Z,101364.22
2023-01-27T22:35:14.422Z,101359.00
2023-01-27T22:37:42.753Z,101354.53
2023-01-27T22:40:14.074Z,101372.59
2023-01-27T22:42:42.088Z,101361.81
2023-01-27T22:45:11.725Z,101371.16
2023-01-27T22:47:39.714Z,101370.88
2023-01-27T22:50:08.384Z,101373.44
2023-01-27T22:52:36.922Z,101367.94
2023-01-27T22:55:05.233Z,101379.88
2023-01-27T22:57:34.796Z,101376.50
2023-01-27T23:00:03.242Z,101370.31
2023-01-27T23:02:31.563Z,101364.72
2023-01-27T23:04:59.698Z,101368.38
2023-01-27T23:07:27.652Z,101369.06
2023-01-27T23:09:55.658Z,101369.72
2023-01-27T23:12:23.723Z,101386.88
2023-01-27T23:14:53.244Z,101383.38
2023-01-27T23:17:21.175Z,101384.84
2023-01-27T23:19:49.091Z,101395.34
2023-01-27T23:22:17.173Z,101404.63
2023-01-27T23:24:45.313Z,101413.72
2023-01-27T23:27:13.390Z,101399.44
2023-01-27T23:29:41.229Z,101421.66
2023-01-27T23:32:10.623Z,101429.97
2023-01-27T23:34:38.724Z,101430.06
2023-01-27T23:37:06.583Z,101426.97
2023-01-27T23:39:34.767Z,101438.59
2023-01-27T23:42:02.733Z,101437.56
2023-01-27T23:44:30.785Z,101447.69
2023-01-27T23:46:58.894Z,101451.94
2023-01-27T23:49:28.277Z,101461.03
2023-01-27T23:51:56.349Z,101476.19
2023-01-27T23:54:24.367Z,101473.16
2023-01-27T23:56:52.424Z,101477.03
2023-01-27T23:59:20.390Z,101483.28
